Time;durP1;ratioP1;P1;durP2;ratioP2;P2;SDS_P1;SDS_P2;PMS_P1;PMS_P2;Temp;Humidity;BMP_temperature;BMP_pressure;BME280_temperature;BME280_humidity;BME280_pressure;Samples;Min_cycle;Max_cycle;Signal;HPM_P1;HPM_P2
2022/01/01 00:02:16;;;;;;;1999.90;999.90;;;2.00;99.90;;;;;;5057015;28;20029;-82
2022/01/01 00:04:42;;;;;;;1999.90;999.90;;;1.80;99.90;;;;;;5057059;28;20025;-80
2022/01/01 00:07:09;;;;;;;1999.90;999.90;;;1.70;99.90;;;;;;5057960;28;20061;-79
2022/01/01 00:09:36;;;;;;;1999.90;999.90;;;1.60;99.90;;;;;;5057168;28;20119;-81
2022/01/01 00:12:02;;;;;;;1999.90;999.90;;;1.60;99.90;;;;;;5055679;28;20021;-80
2022/01/01 00:14:29;;;;;;;1999.90;999.90;;;1.60;99.90;;;;;;5057149;28;20050;-84
2022/01/01 00:16:55;;;;;;;1999.90;999.90;;;1.60;99.90;;;;;;5042979;28;20025;-79
2022/01/01 00:19:20;;;;;;;1999.90;999.90;;;1.60;99.90;;;;;;5039204;28;20037;-82
2022/01/01 00:21:46;;;;;;;1999.90;999.90;;;1.70;99.90;;;;;;5039065;28;20441;-80
2022/01/01 00:24:12;;;;;;;1999.90;999.90;;;1.70;99.90;;;;;;5057076;28;20045;-82
2022/01/01 00:26:38;;;;;;;1999.90;999.90;;;1.80;99.90;;;;;;5038942;28;20029;-77
2022/01/01 00:29:04;;;;;;;1999.90;999.90;;;1.90;99.90;;;;;;5038748;28;20496;-80
2022/01/01 00:31:30;;;;;;;1999.90;999.90;;;2.10;99.90;;;;;;5056828;28;20497;-78
2022/01/01 00:33:55;;;;;;;1999.90;999.90;;;2.20;99.90;;;;;;5038917;28;20029;-75
2022/01/01 00:36:21;;;;;;;1999.90;999.90;;;2.30;99.90;;;;;;5056248;28;20025;-78
2022/01/01 00:38:47;;;;;;;1999.90;999.90;;;2.40;99.90;;;;;;5038508;28;20091;-82
2022/01/01 00:41:12;;;;;;;1999.90;999.90;;;2.60;99.90;;;;;;5056278;28;20024;-77
2022/01/01 00:43:38;;;;;;;1999.90;999.90;;;2.70;99.90;;;;;;5056228;28;20397;-83
2022/01/01 00:46:04;;;;;;;1999.90;999.90;;;2.90;99.90;;;;;;5055780;28;20025;-78
2022/01/01 00:48:30;;;;;;;1999.90;999.90;;;2.90;99.90;;;;;;5056213;28;20100;-79
2022/01/01 00:50:57;;;;;;;1999.90;999.90;;;3.00;99.90;;;;;;5056287;28;20036;-80
2022/01/01 00:53:23;;;;;;;1999.90;999.90;;;3.00;99.90;;;;;;5056191;28;20426;-81
2022/01/01 00:55:48;;;;;;;1999.90;999.90;;;3.10;99.90;;;;;;5055775;28;20029;-80
2022/01/01 00:58:14;;;;;;;1999.90;999.90;;;3.10;99.90;;;;;;5055794;28;20100;-82
2022/01/01 01:00:40;;;;;;;1999.90;999.90;;;3.20;99.90;;;;;;5055508;28;20028;-84
2022/01/01 01:03:10;;;;;;;1999.90;999.90;;;3.20;99.90;;;;;;5037753;28;20024;-78
2022/01/01 01:05:38;;;;;;;1999.90;999.90;;;3.20;99.90;;;;;;5038142;28;20092;-80
2022/01/01 01:08:04;;;;;;;1999.90;999.90;;;3.20;99.90;;;;;;5055988;28;20021;-79
2022/01/01 01:10:30;;;;;;;1999.90;999.90;;;3.10;99.90;;;;;;5055544;28;20056;-78
2022/01/01 01:12:56;;;;;;;1999.90;999.90;;;3.10;99.90;;;;;;5055909;28;20071;-82
2022/01/01 01:15:21;;;;;;;1999.90;999.90;;;3.00;99.90;;;;;;5055731;28;20021;-78
2022/01/01 01:17:49;;;;;;;1999.90;999.90;;;3.00;99.90;;;;;;5036705;28;20050;-81
2022/01/01 01:20:16;;;;;;;1999.90;999.90;;;2.90;99.90;;;;;;5055714;28;20040;-77
2022/01/01 01:22:42;;;;;;;1999.90;999.90;;;2.70;99.90;;;;;;5055752;28;20036;-82
2022/01/01 01:25:09;;;;;;;1999.90;999.90;;;2.50;99.90;;;;;;5055727;28;20531;-81
2022/01/01 01:27:36;;;;;;;1999.90;999.90;;;2.40;99.90;;;;;;5055864;28;20083;-83
2022/01/01 01:30:09;;;;;;;1999.90;999.90;;;2.30;99.90;;;;;;5055926;28;20029;-83
2022/01/01 01:32:35;;;;;;;1999.90;999.90;;;2.20;99.90;;;;;;5054751;28;20036;-80
2022/01/01 01:35:02;;;;;;;1999.90;999.90;;;2.20;99.90;;;;;;5055211;28;20032;-83
2022/01/01 01:37:28;;;;;;;1999.90;999.90;;;2.20;99.90;;;;;;5055294;28;20060;-80
2022/01/01 01:39:58;;;;;;;1999.90;999.90;;;2.20;99.90;;;;;;5055768;28;20029;-79
2022/01/01 01:42:26;;;;;;;1999.90;999.90;;;2.20;99.90;;;;;;5055264;28;20025;-81
2022/01/01 01:44:54;;;;;;;1999.90;999.90;;;2.10;99.90;;;;;;5055049;28;20033;-85
2022/01/01 01:47:29;;;;;;;1999.90;999.90;;;2.20;99.90;;;;;;5037326;28;20021;-81
2022/01/01 01:49:55;;;;;;;1999.90;999.90;;;2.10;99.90;;;;;;5055104;28;20025;-84
2022/01/01 01:52:21;;;;;;;1999.90;999.90;;;2.20;99.90;;;;;;5055491;28;20497;-79
2022/01/01 01:54:47;;;;;;;1999.90;999.90;;;2.20;99.90;;;;;;5037522;28;20021;-81
2022/01/01 01:57:13;;;;;;;1999.90;999.90;;;2.00;99.90;;;;;;5055275;28;20108;-80
2022/01/01 01:59:40;;;;;;;1999.90;999.90;;;2.00;99.90;;;;;;5037746;28;20163;-78
2022/01/01 02:02:07;;;;;;;1999.90;999.90;;;2.00;99.90;;;;;;5055314;28;20501;-84
2022/01/01 02:04:33;;;;;;;1999.90;999.90;;;2.00;99.90;;;;;;5036767;28;20029;-79
2022/01/01 02:06:59;;;;;;;1999.90;999.90;;;1.90;99.90;;;;;;5054178;28;20158;-82
2022/01/01 02:09:25;;;;;;;1999.90;999.90;;;1.90;99.90;;;;;;5054679;28;20029;-78
2022/01/01 02:11:52;;;;;;;1999.90;999.90;;;1.90;99.90;;;;;;5036134;28;20047;-80
2022/01/01 02:14:31;;;;;;;1999.90;999.90;;;1.80;99.90;;;;;;5054119;28;20029;-78
2022/01/01 02:19:27;;;;;;;1999.90;999.90;;;2.00;99.90;;;;;;5054616;28;20103;-79
2022/01/01 02:21:56;;;;;;;1999.90;999.90;;;1.80;99.90;;;;;;5036912;28;20468;-82
2022/01/01 02:24:23;;;;;;;1999.90;999.90;;;1.80;99.90;;;;;;5036922;28;20399;-86
2022/01/01 02:26:49;;;;;;;1999.90;999.90;;;1.90;99.90;;;;;;5054495;28;20021;-78
2022/01/01 02:29:14;;;;;;;1999.90;999.90;;;1.80;99.90;;;;;;5054558;28;20468;-81
2022/01/01 02:31:40;;;;;;;1999.90;999.90;;;1.80;99.90;;;;;;5036686;28;20017;-81
2022/01/01 02:34:09;;;;;;;1999.90;999.90;;;1.80;99.90;;;;;;5055007;28;20046;-84
2022/01/01 02:36:40;;;;;;;1999.90;999.90;;;1.70;99.90;;;;;;5054109;28;20021;-81
2022/01/01 02:39:11;;;;;;;1999.90;999.90;;;1.80;99.90;;;;;;5054184;28;20028;-80
2022/01/01 02:41:37;;;;;;;1999.90;999.90;;;1.80;99.90;;;;;;5016859;28;20028;-81
2022/01/01 02:44:03;;;;;;;1999.90;999.90;;;1.80;99.90;;;;;;5034496;28;20029;-77
2022/01/01 02:46:28;;;;;;;1999.90;999.90;;;1.70;99.90;;;;;;5034641;28;20105;-76
2022/01/01 02:48:54;;;;;;;1999.90;999.90;;;1.80;99.90;;;;;;5034611;28;20108;-77
2022/01/01 02:51:20;;;;;;;1999.90;999.90;;;1.80;99.90;;;;;;5034520;28;20071;-81
2022/01/01 02:53:45;;;;;;;1999.90;999.90;;;1.80;99.90;;;;;;5016491;28;20099;-83
2022/01/01 02:56:11;;;;;;;1999.90;999.90;;;1.80;99.90;;;;;;5033905;28;20030;-79
2022/01/01 02:58:37;;;;;;;1999.90;999.90;;;1.70;99.90;;;;;;5016337;28;20033;-82
2022/01/01 03:01:02;;;;;;;1999.90;999.90;;;1.70;99.90;;;;;;5034118;28;20381;-84
2022/01/01 03:03:28;;;;;;;1999.90;999.90;;;1.70;99.90;;;;;;5034490;28;20104;-83
2022/01/01 03:05:54;;;;;;;1999.90;999.90;;;1.70;99.90;;;;;;5034042;28;20025;-79
2022/01/01 03:08:19;;;;;;;1999.90;999.90;;;1.70;99.90;;;;;;5050528;28;20033;-77
2022/01/01 03:10:47;;;;;;;1999.90;999.90;;;1.60;99.90;;;;;;5053814;28;20029;-82
2022/01/01 03:13:13;;;;;;;1999.90;999.90;;;1.60;99.90;;;;;;5054142;28;20036;-83
2022/01/01 03:15:38;;;;;;;1999.90;999.90;;;1.50;99.90;;;;;;5053933;28;20476;-82
2022/01/01 03:18:04;;;;;;;1999.90;999.90;;;1.60;99.90;;;;;;5053955;28;20025;-82
2022/01/01 03:20:30;;;;;;;1999.90;999.90;;;1.60;99.90;;;;;;5036497;28;20500;-76
2022/01/01 03:22:56;;;;;;;1999.90;999.90;;;1.50;99.90;;;;;;5038853;28;20032;-77
2022/01/01 03:25:21;;;;;;;1999.90;999.90;;;1.50;99.90;;;;;;5057544;28;20056;-79
2022/01/01 03:27:47;;;;;;;1999.90;999.90;;;1.50;99.90;;;;;;5057720;28;20096;-79
2022/01/01 03:30:13;;;;;;;1999.90;999.90;;;1.50;99.90;;;;;;5058020;28;20025;-81
2022/01/01 03:32:38;;;;;;;1999.90;999.90;;;1.60;99.90;;;;;;5058315;28;20021;-79
2022/01/01 03:35:04;;;;;;;1999.90;999.90;;;1.80;99.90;;;;;;5058068;28;20086;-83
2022/01/01 03:37:30;;;;;;;1999.90;999.90;;;1.70;99.90;;;;;;5058074;28;20022;-77
2022/01/01 03:39:55;;;;;;;1999.90;999.90;;;1.70;99.90;;;;;;5057904;28;20036;-82
2022/01/01 03:42:21;;;;;;;1999.90;999.90;;;1.70;99.90;;;;;;5058087;28;20029;-82
2022/01/01 03:44:47;;;;;;;1999.90;999.90;;;1.70;99.90;;;;;;5057619;28;20032;-79
2022/01/01 03:47:12;;;;;;;1999.90;999.90;;;1.70;99.90;;;;;;5039636;28;20029;-79
2022/01/01 03:49:39;;;;;;;1999.90;999.90;;;1.80;99.90;;;;;;5056847;28;20522;-82
2022/01/01 03:52:06;;;;;;;1999.90;999.90;;;1.80;99.90;;;;;;5056853;28;20029;-76
2022/01/01 03:54:32;;;;;;;1999.90;999.90;;;1.90;99.90;;;;;;5056310;28;20025;-86
2022/01/01 03:56:58;;;;;;;1999.90;999.90;;;1.80;99.90;;;;;;5039540;28;20088;-85
2022/01/01 03:59:26;;;;;;;1999.90;999.90;;;2.00;99.90;;;;;;5056954;28;20037;-78
2022/01/01 04:01:54;;;;;;;1999.90;999.90;;;1.80;99.90;;;;;;5057499;28;20024;-81
2022/01/01 04:04:22;;;;;;;1999.90;999.90;;;1.90;99.90;;;;;;5039378;28;20025;-78
2022/01/01 04:06:48;;;;;;;1999.90;999.90;;;1.90;99.90;;;;;;5039220;28;20787;-81
2022/01/01 04:09:14;;;;;;;1999.90;999.90;;;1.80;99.90;;;;;;5056718;28;20021;-77
2022/01/01 04:11:40;;;;;;;1999.90;999.90;;;1.90;99.90;;;;;;5056440;28;20028;-79
2022/01/01 04:14:10;;;;;;;1999.90;999.90;;;1.90;99.90;;;;;;5056825;28;20060;-79
2022/01/01 04:16:36;;;;;;;1999.90;999.90;;;1.90;99.90;;;;;;5057187;28;20021;-79
2022/01/01 04:19:02;;;;;;;1999.90;999.90;;;1.90;99.90;;;;;;5057504;28;20037;-79
2022/01/01 04:21:27;;;;;;;1999.90;999.90;;;2.00;99.90;;;;;;5058225;28;20047;-84
2022/01/01 04:23:53;;;;;;;1999.90;999.90;;;2.10;99.90;;;;;;5057300;28;20017;-78
2022/01/01 04:26:19;;;;;;;1999.90;999.90;;;2.30;99.90;;;;;;5057712;28;20051;-82
2022/01/01 04:28:45;;;;;;;1999.90;999.90;;;2.30;99.90;;;;;;5039302;28;20463;-80
2022/01/01 04:31:13;;;;;;;1999.90;999.90;;;2.20;99.90;;;;;;5057152;28;20089;-77
2022/01/01 04:33:39;;;;;;;1999.90;999.90;;;2.20;99.90;;;;;;5056261;28;20017;-80
2022/01/01 04:36:04;;;;;;;1999.90;999.90;;;2.40;99.90;;;;;;5056486;28;20043;-79
2022/01/01 04:38:38;;;;;;;1999.90;999.90;;;2.20;99.90;;;;;;5056669;28;20029;-79
2022/01/01 04:41:06;;;;;;;1999.90;999.90;;;2.20;99.90;;;;;;5038356;28;20477;-81
2022/01/01 04:43:32;;;;;;;1999.90;999.90;;;2.20;99.90;;;;;;5056740;28;20017;-81
2022/01/01 04:45:57;;;;;;;1999.90;999.90;;;2.20;99.90;;;;;;5056155;28;20074;-78
2022/01/01 04:48:23;;;;;;;1999.90;999.90;;;2.20;99.90;;;;;;5056769;28;20029;-78
2022/01/01 04:50:48;;;;;;;1999.90;999.90;;;2.20;99.90;;;;;;5057023;28;20032;-78
2022/01/01 04:53:17;;;;;;;1999.90;999.90;;;2.20;99.90;;;;;;5056878;28;20021;-79
2022/01/01 04:55:43;;;;;;;1999.90;999.90;;;2.20;99.90;;;;;;5056530;28;20028;-78
2022/01/01 04:58:09;;;;;;;1999.90;999.90;;;2.10;99.90;;;;;;5038304;28;20032;-77
2022/01/01 05:00:35;;;;;;;1999.90;999.90;;;2.30;99.90;;;;;;5037606;28;20041;-76
2022/01/01 05:03:01;;;;;;;1999.90;999.90;;;2.50;99.90;;;;;;5055354;28;20608;-80
2022/01/01 05:05:26;;;;;;;1999.90;999.90;;;2.60;99.90;;;;;;5054507;28;20032;-77
2022/01/01 05:07:52;;;;;;;1999.90;999.90;;;2.60;99.90;;;;;;5054418;28;20104;-76
2022/01/01 05:10:18;;;;;;;1999.90;999.90;;;2.70;99.90;;;;;;5054472;28;20063;-77
2022/01/01 05:12:43;;;;;;;1999.90;999.90;;;2.70;99.90;;;;;;5054035;28;20036;-77
2022/01/01 05:15:09;;;;;;;1999.90;999.90;;;2.70;99.90;;;;;;5054536;28;20029;-77
2022/01/01 05:17:35;;;;;;;1999.90;999.90;;;2.70;99.90;;;;;;5054308;28;20033;-75
2022/01/01 05:20:02;;;;;;;1999.90;999.90;;;2.60;99.90;;;;;;5054181;28;20033;-76
2022/01/01 05:22:27;;;;;;;1999.90;999.90;;;2.60;99.90;;;;;;5036648;28;20422;-81
2022/01/01 05:24:56;;;;;;;1999.90;999.90;;;2.50;99.90;;;;;;5053865;28;20056;-77
2022/01/01 05:27:22;;;;;;;1999.90;999.90;;;2.40;99.90;;;;;;5053949;28;20114;-80
2022/01/01 05:29:48;;;;;;;1999.90;999.90;;;2.40;99.90;;;;;;5054224;28;20052;-80
2022/01/01 05:32:13;;;;;;;1999.90;999.90;;;2.40;99.90;;;;;;5054535;28;20392;-76
2022/01/01 05:34:39;;;;;;;1999.90;999.90;;;2.40;99.90;;;;;;5053818;28;20388;-76
2022/01/01 05:37:05;;;;;;;1999.90;999.90;;;2.30;99.90;;;;;;5053955;28;20025;-76
2022/01/01 05:39:31;;;;;;;1999.90;999.90;;;2.30;99.90;;;;;;5036270;28;20408;-75
2022/01/01 05:41:57;;;;;;;1999.90;999.90;;;2.30;99.90;;;;;;5036065;28;20021;-75
2022/01/01 05:44:23;;;;;;;1999.90;999.90;;;2.30;99.90;;;;;;5053685;28;20503;-77
2022/01/01 05:46:50;;;;;;;1999.90;999.90;;;2.30;99.90;;;;;;5034531;28;20048;-76
2022/01/01 05:49:16;;;;;;;1999.90;999.90;;;2.20;99.90;;;;;;5053973;28;20013;-76
2022/01/01 05:51:41;;;;;;;1999.90;999.90;;;2.20;99.90;;;;;;5053504;28;20028;-80
2022/01/01 05:54:07;;;;;;;1999.90;999.90;;;2.20;99.90;;;;;;5035437;28;20025;-77
2022/01/01 05:56:33;;;;;;;1999.90;999.90;;;2.20;99.90;;;;;;5052986;28;20487;-75
2022/01/01 05:58:58;;;;;;;1999.90;999.90;;;2.20;99.90;;;;;;5053024;28;20076;-77
2022/01/01 06:01:24;;;;;;;1999.90;999.90;;;2.20;99.90;;;;;;5053348;28;20033;-80
2022/01/01 06:03:50;;;;;;;1999.90;999.90;;;2.10;99.90;;;;;;5053701;28;20401;-76
2022/01/01 06:06:15;;;;;;;1999.90;999.90;;;2.20;99.90;;;;;;5035400;28;20029;-76
2022/01/01 06:08:41;;;;;;;1999.90;999.90;;;2.10;99.90;;;;;;5053640;28;20024;-76
2022/01/01 06:11:07;;;;;;;1999.90;999.90;;;2.10;99.90;;;;;;5053499;28;20602;-77
2022/01/01 06:13:32;;;;;;;1999.90;999.90;;;2.00;99.90;;;;;;5053054;28;20033;-76
2022/01/01 06:15:58;;;;;;;1999.90;999.90;;;1.90;99.90;;;;;;5053161;28;20029;-76
2022/01/01 06:18:24;;;;;;;1999.90;999.90;;;1.90;99.90;;;;;;5035445;28;20033;-76
2022/01/01 06:20:49;;;;;;;1999.90;999.90;;;2.00;99.90;;;;;;5052661;28;20143;-75
2022/01/01 06:23:15;;;;;;;1999.90;999.90;;;1.90;99.90;;;;;;5053140;28;20473;-75
2022/01/01 06:25:41;;;;;;;1999.90;999.90;;;1.90;99.90;;;;;;5052673;28;20049;-76
2022/01/01 06:28:06;;;;;;;1999.90;999.90;;;1.90;99.90;;;;;;5053094;28;20079;-78
2022/01/01 06:30:33;;;;;;;1999.90;999.90;;;1.90;99.90;;;;;;5035070;28;20451;-78
2022/01/01 06:33:18;;;;;;;1999.90;999.90;;;2.00;99.90;;;;;;5052988;28;20108;-75
2022/01/01 06:35:45;;;;;;;1999.90;999.90;;;2.00;99.90;;;;;;5052838;28;20417;-78
2022/01/01 06:38:12;;;;;;;1999.90;999.90;;;2.00;99.90;;;;;;5034592;28;20036;-77
2022/01/01 06:40:40;;;;;;;1999.90;999.90;;;2.00;99.90;;;;;;5052478;28;20068;-77
2022/01/01 06:43:07;;;;;;;1999.90;999.90;;;2.00;99.90;;;;;;5052641;28;20017;-75
2022/01/01 06:45:33;;;;;;;1999.90;999.90;;;2.00;99.90;;;;;;5052374;28;20494;-81
2022/01/01 06:47:59;;;;;;;1999.90;999.90;;;2.00;99.90;;;;;;5052842;28;20025;-85
2022/01/01 06:50:24;;;;;;;1999.90;999.90;;;2.10;99.90;;;;;;5052686;28;20108;-78
2022/01/01 06:52:50;;;;;;;1999.90;999.90;;;2.10;99.90;;;;;;5052635;28;20021;-76
2022/01/01 06:55:16;;;;;;;1999.90;999.90;;;2.20;99.90;;;;;;5052456;28;20025;-80
2022/01/01 06:57:43;;;;;;;1999.90;999.90;;;2.00;99.90;;;;;;5051963;28;20113;-75
2022/01/01 07:00:10;;;;;;;1999.90;999.90;;;1.90;99.90;;;;;;5034525;28;20210;-75
2022/01/01 07:02:46;;;;;;;1999.90;999.90;;;1.90;99.90;;;;;;5052532;28;20021;-80
2022/01/01 07:05:12;;;;;;;1999.90;999.90;;;1.80;99.90;;;;;;5052904;28;20066;-76
2022/01/01 07:07:38;;;;;;;1999.90;999.90;;;2.50;99.90;;;;;;5052928;28;20033;-76
2022/01/01 07:10:08;;;;;;;1999.90;999.90;;;2.50;99.90;;;;;;5056599;28;20029;-84
2022/01/01 07:12:36;;;;;;;1999.90;999.90;;;2.30;99.90;;;;;;5035770;28;20029;-81
2022/01/01 07:15:02;;;;;;;1999.90;999.90;;;2.20;99.90;;;;;;5035358;28;20025;-78
2022/01/01 07:17:28;;;;;;;1999.90;999.90;;;2.10;99.90;;;;;;5037070;28;20515;-85
2022/01/01 07:19:54;;;;;;;1999.90;999.90;;;2.10;99.90;;;;;;5035600;28;20124;-81
2022/01/01 07:22:19;;;;;;;1999.90;999.90;;;2.10;99.90;;;;;;5034957;28;20025;-79
2022/01/01 07:24:45;;;;;;;1999.90;999.90;;;2.10;99.90;;;;;;5034320;28;20053;-79
2022/01/01 07:27:12;;;;;;;1999.90;999.90;;;2.20;99.90;;;;;;5034498;28;20013;-79
2022/01/01 07:29:38;;;;;;;1999.90;999.90;;;2.10;99.90;;;;;;5035161;28;20033;-80
2022/01/01 07:32:04;;;;;;;1999.90;999.90;;;2.30;99.90;;;;;;5035243;28;20097;-82
2022/01/01 07:34:30;;;;;;;1999.90;999.90;;;2.30;99.90;;;;;;5034752;28;20021;-80
2022/01/01 07:36:56;;;;;;;1999.90;999.90;;;2.30;99.90;;;;;;5035001;28;20024;-81
2022/01/01 07:39:21;;;;;;;1999.90;999.90;;;2.40;99.90;;;;;;5035290;28;20082;-82
2022/01/01 07:41:47;;;;;;;1999.90;999.90;;;2.40;99.90;;;;;;5034892;28;20112;-81
2022/01/01 07:44:13;;;;;;;1999.90;999.90;;;2.50;99.90;;;;;;5034827;28;20021;-80
2022/01/01 07:46:39;;;;;;;1999.90;999.90;;;2.60;99.90;;;;;;5034967;28;20476;-80
2022/01/01 07:49:05;;;;;;;1999.90;999.90;;;2.60;99.90;;;;;;5035012;28;20036;-81
2022/01/01 07:51:31;;;;;;;1999.90;999.90;;;2.70;99.90;;;;;;5053117;28;20035;-82
2022/01/01 07:53:57;;;;;;;1999.90;999.90;;;2.80;99.90;;;;;;5034400;28;20104;-82
2022/01/01 07:56:23;;;;;;;1999.90;999.90;;;3.00;99.90;;;;;;5052671;28;20056;-80
2022/01/01 07:58:48;;;;;;;1999.90;999.90;;;3.10;99.90;;;;;;5035180;28;20476;-82
2022/01/01 08:01:14;;;;;;;1999.90;999.90;;;3.20;99.90;;;;;;5034907;28;20476;-82
2022/01/01 08:03:40;;;;;;;1999.90;999.90;;;3.30;99.90;;;;;;5035195;28;20033;-80
2022/01/01 08:06:05;;;;;;;1999.90;999.90;;;3.40;99.90;;;;;;5034722;28;20033;-81
2022/01/01 08:08:31;;;;;;;1999.90;999.90;;;3.50;99.90;;;;;;5052710;28;20017;-81
2022/01/01 08:10:58;;;;;;;1999.90;999.90;;;3.60;99.90;;;;;;5038818;28;20484;-84
2022/01/01 08:13:25;;;;;;;1999.90;999.90;;;3.60;99.90;;;;;;5038231;28;20427;-82
2022/01/01 08:15:55;;;;;;;1999.90;999.90;;;3.70;99.90;;;;;;5038393;28;20036;-81
2022/01/01 08:18:21;;;;;;;1999.90;999.90;;;3.70;99.90;;;;;;5056130;28;20089;-81
2022/01/01 08:20:47;;;;;;;1999.90;999.90;;;3.90;99.90;;;;;;5038240;28;20094;-80
2022/01/01 08:23:14;;;;;;;1999.90;999.90;;;4.00;99.90;;;;;;5038688;28;20021;-82
2022/01/01 08:25:41;;;;;;;1999.90;999.90;;;4.10;99.90;;;;;;5055885;28;20060;-81
2022/01/01 08:28:09;;;;;;;1999.90;999.90;;;4.10;99.90;;;;;;5037884;28;20025;-80
2022/01/01 08:30:35;;;;;;;1999.90;999.90;;;4.30;99.90;;;;;;5037752;28;20031;-81
2022/01/01 08:33:03;;;;;;;1999.90;999.90;;;4.40;99.90;;;;;;5037738;28;20107;-78
2022/01/01 08:35:31;;;;;;;1999.90;999.90;;;4.50;99.90;;;;;;5037871;28;20029;-82
2022/01/01 08:37:56;;;;;;;1999.90;999.90;;;4.60;99.90;;;;;;5038605;28;20020;-81
2022/01/01 08:40:24;;;;;;;1999.90;999.90;;;4.70;99.90;;;;;;5038286;28;20570;-81
2022/01/01 08:42:50;;;;;;;1999.90;999.90;;;4.80;99.90;;;;;;5055695;28;20500;-82
2022/01/01 08:45:16;;;;;;;1999.90;999.90;;;5.00;99.90;;;;;;5038174;28;20035;-82
2022/01/01 08:47:42;;;;;;;1999.90;999.90;;;5.10;99.90;;;;;;5038100;28;20025;-83
2022/01/01 08:50:09;;;;;;;1999.90;999.90;;;5.30;99.90;;;;;;5038344;28;20033;-84
2022/01/01 08:52:35;;;;;;;1999.90;999.90;;;5.40;99.90;;;;;;5055607;28;20503;-81
2022/01/01 08:55:01;;;;;;;1999.90;999.90;;;5.50;99.90;;;;;;5037832;28;20033;-82
2022/01/01 08:57:27;;;;;;;1999.90;999.90;;;5.60;99.90;;;;;;5038006;28;20037;-84
2022/01/01 08:59:53;;;;;;;1999.90;999.90;;;5.70;99.90;;;;;;5037826;28;20032;-82
2022/01/01 09:02:18;;;;;;;1999.90;999.90;;;5.90;99.90;;;;;;5038135;28;20033;-84
2022/01/01 09:04:45;;;;;;;1999.90;999.90;;;6.10;99.90;;;;;;5037824;28;20120;-81
2022/01/01 09:07:12;;;;;;;1999.90;999.90;;;6.20;99.90;;;;;;5037408;28;20468;-83
2022/01/01 09:09:39;;;;;;;1999.90;999.90;;;6.30;99.90;;;;;;5037617;28;20064;-81
2022/01/01 09:12:05;;;;;;;1999.90;999.90;;;6.30;99.90;;;;;;5037842;28;20078;-81
2022/01/01 09:14:31;;;;;;;1999.90;999.90;;;6.50;99.90;;;;;;5037803;28;20376;-85
2022/01/01 09:16:57;;;;;;;1999.90;999.90;;;6.50;99.90;;;;;;5037686;28;20017;-82
2022/01/01 09:19:22;;;;;;;1999.90;999.90;;;6.60;99.90;;;;;;5037490;28;20462;-82
2022/01/01 09:21:48;;;;;;;1999.90;999.90;;;6.70;99.90;;;;;;5037361;28;20035;-83
2022/01/01 09:24:14;;;;;;;1999.90;999.90;;;6.70;99.90;;;;;;5037030;28;20136;-81
2022/01/01 09:26:39;;;;;;;1999.90;999.90;;;6.80;99.90;;;;;;5037250;28;20036;-82
2022/01/01 09:29:06;;;;;;;1999.90;999.90;;;7.00;99.90;;;;;;5055220;28;20036;-80
2022/01/01 09:31:32;;;;;;;1999.90;999.90;;;7.10;99.90;;;;;;5037003;28;20390;-80
2022/01/01 09:33:58;;;;;;;1999.90;999.90;;;7.20;99.90;;;;;;5054376;28;20501;-81
2022/01/01 09:36:24;;;;;;;1999.90;999.90;;;7.30;99.90;;;;;;5053422;28;20029;-83
2022/01/01 09:38:49;;;;;;;1999.90;999.90;;;7.40;99.90;;;;;;5053637;28;20025;-82
2022/01/01 09:41:15;;;;;;;1999.90;999.90;;;7.50;99.90;;;;;;5054796;28;20385;-84
2022/01/01 09:43:41;;;;;;;1999.90;999.90;;;7.50;99.90;;;;;;5054148;28;20029;-83
2022/01/01 09:46:12;;;;;;;1999.90;999.90;;;7.60;99.90;;;;;;5055554;28;20039;-84
2022/01/01 09:48:38;;;;;;;1999.90;999.90;;;7.60;99.90;;;;;;5053812;28;20032;-83
2022/01/01 09:51:04;;;;;;;1999.90;999.90;;;7.70;99.90;;;;;;5068996;28;20020;-83
2022/01/01 09:53:31;;;;;;;1999.90;999.90;;;7.70;99.90;;;;;;5057262;28;20104;-81
2022/01/01 09:55:58;;;;;;;1999.90;999.90;;;7.80;99.90;;;;;;5056545;28;20043;-87
2022/01/01 09:58:26;;;;;;;1999.90;999.90;;;7.90;99.90;;;;;;5053088;28;20024;-85
2022/01/01 10:00:52;;;;;;;1999.90;999.90;;;8.00;99.90;;;;;;5053626;28;20033;-84
2022/01/01 10:03:30;;;;;;;1999.90;999.90;;;8.10;99.90;;;;;;5056221;28;20031;-84
2022/01/01 10:05:59;;;;;;;1999.90;999.90;;;8.20;99.90;;;;;;5056629;28;20472;-86
2022/01/01 10:08:25;;;;;;;1999.90;999.90;;;8.30;99.90;;;;;;5056837;28;20031;-83
2022/01/01 10:10:52;;;;;;;1999.90;999.90;;;8.50;99.90;;;;;;5056118;28;20450;-80
2022/01/01 10:13:18;;;;;;;1999.90;999.90;;;8.60;99.90;;;;;;5072948;28;20025;-84
2022/01/01 10:15:43;;;;;;;1999.90;999.90;;;8.70;99.90;;;;;;5074514;28;20096;-85
2022/01/01 10:18:09;;;;;;;1999.90;999.90;;;8.90;99.90;;;;;;5056702;28;20027;-84
2022/01/01 10:20:43;;;;;;;1999.90;999.90;;;9.00;99.90;;;;;;5074143;28;20033;-85
2022/01/01 10:23:15;;;;;;;1999.90;999.90;;;9.10;99.90;;;;;;5056110;28;20601;-85
2022/01/01 10:28:25;;;;;;;1999.90;999.90;;;9.30;99.90;;;;;;5074372;28;20047;-83
2022/01/01 10:30:51;;;;;;;1999.90;999.90;;;9.40;99.90;;;;;;5074101;28;20032;-82
2022/01/01 10:33:19;;;;;;;1999.90;999.90;;;9.50;99.90;;;;;;5055125;28;20025;-80
2022/01/01 10:35:46;;;;;;;1999.90;999.90;;;9.50;99.90;;;;;;5055925;28;20051;-83
2022/01/01 10:38:16;;;;;;;1999.90;999.90;;;9.50;99.90;;;;;;5056204;28;20111;-84
2022/01/01 10:40:43;;;;;;;1999.90;999.90;;;9.60;99.90;;;;;;5056190;28;20040;-82
2022/01/01 10:43:10;;;;;;;1999.90;999.90;;;9.70;99.90;;;;;;5055582;28;20024;-82
2022/01/01 10:45:42;;;;;;;1999.90;999.90;;;9.70;99.90;;;;;;5073864;28;20530;-82
2022/01/01 10:48:38;;;;;;;1999.90;999.90;;;9.80;99.90;;;;;;5056049;28;20020;-83
2022/01/01 10:51:07;;;;;;;;;;;9.90;99.90;;;;;;5056561;28;20042;-83
2022/01/01 10:53:34;;;;;;;1999.90;999.90;;;10.00;99.90;;;;;;5055563;28;19912;-82
2022/01/01 10:56:01;;;;;;;1999.90;999.90;;;10.10;99.90;;;;;;5056010;28;20024;-86
2022/01/01 10:58:34;;;;;;;1999.90;999.90;;;10.20;99.90;;;;;;5073489;28;20031;-86
2022/01/01 11:01:05;;;;;;;1999.90;999.90;;;10.30;99.90;;;;;;5056084;28;20033;-83
2022/01/01 11:03:42;;;;;;;1999.90;999.90;;;10.40;99.90;;;;;;5056501;28;20025;-84
2022/01/01 11:06:10;;;;;;;1999.90;999.90;;;10.50;99.90;;;;;;5056517;28;20024;-85
2022/01/01 11:08:41;;;;;;;1999.90;999.90;;;10.50;99.90;;;;;;5056299;28;20017;-82
2022/01/01 11:11:07;;;;;;;1999.90;999.90;;;10.60;99.90;;;;;;5055806;28;20031;-83
2022/01/01 11:13:34;;;;;;;1999.90;999.90;;;10.70;99.90;;;;;;5073480;28;20066;-80
2022/01/01 11:16:01;;;;;;;1999.90;999.90;;;10.90;99.90;;;;;;5055628;28;20020;-83
2022/01/01 11:18:27;;;;;;;1999.90;999.90;;;11.00;99.90;;;;;;5056009;28;20025;-83
2022/01/01 11:20:53;;;;;;;1999.90;999.90;;;11.10;99.90;;;;;;5055871;28;20369;-82
2022/01/01 11:23:20;;;;;;;1999.90;999.90;;;11.30;99.90;;;;;;5055713;28;20028;-86
2022/01/01 11:25:47;;;;;;;1999.90;999.90;;;11.50;99.90;;;;;;5055503;28;20049;-84
2022/01/01 11:28:16;;;;;;;1999.90;999.90;;;11.60;99.90;;;;;;5055763;28;20025;-85
2022/01/01 11:30:57;;;;;;;1999.90;999.90;;;11.70;99.90;;;;;;5073601;28;20096;-83
2022/01/01 11:33:33;;;;;;;1999.90;999.90;;;11.70;99.90;;;;;;5055818;28;20428;-86
2022/01/01 11:36:00;;;;;;;1999.90;999.90;;;11.80;99.90;;;;;;5055652;28;20029;-86
2022/01/01 11:38:29;;;;;;;1999.90;999.90;;;11.80;99.90;;;;;;5073638;28;20017;-85
2022/01/01 11:41:07;;;;;;;1999.90;999.90;;;11.90;99.90;;;;;;5056044;28;20033;-85
2022/01/01 11:43:39;;;;;;;1999.90;999.90;;;11.90;99.90;;;;;;5055628;28;20544;-83
2022/01/01 11:46:22;;;;;;;1999.90;999.90;;;11.90;99.90;;;;;;5059282;28;20082;-84
2022/01/01 11:48:55;;;;;;;1999.90;999.90;;;12.00;99.90;;;;;;5059529;28;20020;-80
2022/01/01 11:51:32;;;;;;;1999.90;999.90;;;12.00;99.90;;;;;;5060047;28;20356;-83
2022/01/01 11:54:22;;;;;;;1999.90;999.90;;;12.20;99.90;;;;;;5059291;28;20364;-81
2022/01/01 11:56:50;;;;;;;1999.90;999.90;;;12.20;99.90;;;;;;5059233;28;20024;-86
2022/01/01 11:59:31;;;;;;;1999.90;999.90;;;12.30;99.90;;;;;;5059605;28;20020;-82
2022/01/01 12:02:04;;;;;;;1999.90;999.90;;;12.30;99.90;;;;;;5058946;28;20024;-82
2022/01/01 12:04:43;;;;;;;1999.90;999.90;;;12.40;99.90;;;;;;5058936;28;20032;-83
2022/01/01 12:07:20;;;;;;;1999.90;999.90;;;12.50;99.90;;;;;;5077136;28;20086;-80
2022/01/01 12:09:49;;;;;;;1999.90;999.90;;;12.50;99.90;;;;;;5047114;28;20028;-81
2022/01/01 12:12:17;;;;;;;1999.90;999.90;;;12.50;99.90;;;;;;5036986;28;20037;-80
2022/01/01 12:14:44;;;;;;;1999.90;999.90;;;12.60;99.90;;;;;;5054819;28;20020;-79